There are multiple Weather-warnings   Click here for more information


Meteo18 Weather Cam more information Meteo18 Weather Cam


Thunder radar more information blitzortung!


warning for Snow/Ice more information rain snow radar


Visit our other weather sites:

Template documentation
and downloads

And another site



Weather Underground History page Text

Daily Summary for May 23, 2017 Units:  English    Metric   Both
« Previous Day
Next Day »
Daily Weekly Monthly Yearly Custom
  High: Low: Average:
Temperature: TemperatureC °F 11.7 °F 18.5 °F
Dew Point: DewpointC °F 10.9 °F 14.2 °F
Humidity: Humidity % 52 % 77 %
Wind Speed: WindSpeedKMH mph 0.0 mph 3 mph
Wind Gust: WindSpeedGustKMH mph - -
Wind:- - West
Pressure: PressurehPa in 1018.8 in -
Precipitation: 0.0 in    
Historical Graphs
 
 
Tabular Data for May 23, 2017
Time Temperature Dew Point Pressure Wind Wind Speed Wind Gust Humidity Rainfall Rate (Hourly)
TemperatureC °F DewpointC °F PressurehPa in Calm     Humidity % HourlyPrecipMM in
00:02 18.4 °F 14.3 °F 1018.8 in WNW 1.6 mph 8.0 mph 77 % 0.0 in
00:07 18.3 °F 14.4 °F 1018.8 in Calm   6.4 mph 78 % 0.0 in
00:12 18.3 °F 14.4 °F 1018.8 in Calm   6.4 mph 78 % 0.0 in
00:17 18.1 °F 14.2 °F 1018.8 in Calm   4.8 mph 78 % 0.0 in
00:22 18.0 °F 14.3 °F 1018.8 in WNW 1.6 mph 4.8 mph 79 % 0.0 in
00:27 17.9 °F 14.2 °F 1018.8 in Calm   4.8 mph 79 % 0.0 in
00:32 17.9 °F 14.2 °F 1018.8 in WNW 1.6 mph 4.8 mph 79 % 0.0 in
00:37 17.8 °F 14.1 °F 1019.2 in North 1.6 mph 4.8 mph 79 % 0.0 in
00:42 17.7 °F 14.2 °F 1019.2 in WNW 1.6 mph 4.8 mph 80 % 0.0 in
00:52 17.6 °F 14.1 °F 1019.2 in WNW 3.2 mph 4.8 mph 80 % 0.0 in
00:57 17.6 °F 14.1 °F 1019.2 in WNW 1.6 mph 4.8 mph 80 % 0.0 in
01:02 17.5 °F 14.0 °F 1019.2 in Calm   4.8 mph 80 % 0.0 in
01:07 17.2 °F 13.9 °F 1019.2 in Calm   4.8 mph 81 % 0.0 in
01:12 16.9 °F 14.0 °F 1019.2 in Calm   4.8 mph 83 % 0.0 in
01:17 16.9 °F 14.0 °F 1019.2 in Calm   1.6 mph 83 % 0.0 in
01:22 16.8 °F 13.9 °F 1019.2 in Calm   1.6 mph 83 % 0.0 in
01:32 16.5 °F 13.8 °F 1019.2 in Calm   1.6 mph 84 % 0.0 in
01:42 16.2 °F 13.7 °F 1019.2 in Calm     85 % 0.0 in
01:47 16.0 °F 13.5 °F 1019.2 in Calm     85 % 0.0 in
01:52 15.9 °F 13.6 °F 1019.2 in Calm     86 % 0.0 in
01:57 15.8 °F 13.5 °F 1019.2 in Calm     86 % 0.0 in
02:02 15.9 °F 13.7 °F 1019.2 in Calm     87 % 0.0 in
02:12 15.8 °F 13.6 °F 1019.2 in Calm     87 % 0.0 in
02:17 15.8 °F 13.6 °F 1019.2 in Calm     87 % 0.0 in
02:22 15.8 °F 13.6 °F 1018.8 in WSW 3.2 mph   87 % 0.0 in
02:32 15.7 °F 13.5 °F 1019.2 in SSW 1.6 mph 3.2 mph 87 % 0.0 in
02:37 15.6 °F 13.4 °F 1019.2 in Calm   3.2 mph 87 % 0.0 in
02:47 15.3 °F 13.1 °F 1019.2 in Calm   1.6 mph 87 % 0.0 in
02:52 15.1 °F 13.1 °F 1019.2 in Calm   1.6 mph 88 % 0.0 in
02:57 14.9 °F 13.1 °F 1019.2 in Calm   1.6 mph 89 % 0.0 in
03:02 14.8 °F 13.2 °F 1019.2 in Calm   1.6 mph 90 % 0.0 in
03:12 14.8 °F 13.2 °F 1019.2 in Calm   1.6 mph 90 % 0.0 in
03:17 14.7 °F 13.1 °F 1019.2 in Calm     90 % 0.0 in
03:22 14.7 °F 13.1 °F 1019.2 in Calm     90 % 0.0 in
03:27 14.6 °F 13.1 °F 1019.2 in Calm   1.6 mph 91 % 0.0 in
03:32 14.4 °F 12.9 °F 1019.2 in Calm   1.6 mph 91 % 0.0 in
03:42 14.1 °F 12.7 °F 1019.2 in Calm   1.6 mph 91 % 0.0 in
03:47 14.1 °F 12.8 °F 1019.2 in Calm   1.6 mph 92 % 0.0 in
03:52 13.9 °F 12.6 °F 1019.2 in Calm   1.6 mph 92 % 0.0 in
04:02 13.7 °F 12.4 °F 1019.2 in Calm   1.6 mph 92 % 0.0 in
04:07 13.4 °F 12.1 °F 1019.2 in Calm   1.6 mph 92 % 0.0 in
04:12 13.3 °F 12.0 °F 1019.2 in Calm   1.6 mph 92 % 0.0 in
04:17 13.2 °F 12.1 °F 1019.2 in Calm   1.6 mph 93 % 0.0 in
04:22 13.2 °F 12.1 °F 1019.2 in Calm   1.6 mph 93 % 0.0 in
04:27 13.1 °F 12.0 °F 1019.5 in Calm   1.6 mph 93 % 0.0 in
04:32 13.1 °F 12.0 °F 1019.5 in Calm   1.6 mph 93 % 0.0 in
04:37 12.9 °F 11.8 °F 1019.5 in Calm   1.6 mph 93 % 0.0 in
04:42 12.9 °F 12.0 °F 1019.5 in Calm   1.6 mph 94 % 0.0 in
04:47 12.6 °F 11.5 °F 1019.5 in Calm   1.6 mph 93 % 0.0 in
04:52 12.6 °F 11.7 °F 1019.5 in Calm   1.6 mph 94 % 0.0 in
04:57 12.6 °F 11.7 °F 1019.5 in Calm   1.6 mph 94 % 0.0 in
05:02 12.5 °F 11.6 °F 1019.5 in Calm   1.6 mph 94 % 0.0 in
05:12 12.5 °F 11.6 °F 1019.5 in Calm     94 % 0.0 in
05:17 12.4 °F 11.5 °F 1019.5 in Calm     94 % 0.0 in
05:22 12.2 °F 11.3 °F 1019.5 in Calm     94 % 0.0 in
05:32 12.1 °F 11.3 °F 1019.5 in Calm     95 % 0.0 in
05:42 12.2 °F 11.4 °F 1019.9 in Calm   3.2 mph 95 % 0.0 in
05:47 12.3 °F 11.5 °F 1019.9 in South 3.2 mph 3.2 mph 95 % 0.0 in
05:52 12.2 °F 11.4 °F 1019.9 in Calm   3.2 mph 95 % 0.0 in
06:02 11.9 °F 11.1 °F 1019.9 in SSE 1.6 mph 3.2 mph 95 % 0.0 in
06:07 11.8 °F 11.0 °F 1019.9 in South 3.2 mph 3.2 mph 95 % 0.0 in
06:12 11.7 °F 10.9 °F 1019.9 in Calm   3.2 mph 95 % 0.0 in
06:17 11.7 °F 10.9 °F 1019.9 in Calm   3.2 mph 95 % 0.0 in
06:22 11.7 °F 10.9 °F 1019.9 in Calm   3.2 mph 95 % 0.0 in
06:27 11.7 °F 11.1 °F 1019.9 in Calm   3.2 mph 96 % 0.0 in
06:32 11.7 °F 10.9 °F 1019.9 in Calm   3.2 mph 95 % 0.0 in
06:37 11.7 °F 11.1 °F 1020.2 in Calm   1.6 mph 96 % 0.0 in
06:42 11.9 °F 11.3 °F 1020.2 in Calm   1.6 mph 96 % 0.0 in
06:47 12.1 °F 11.5 °F 1020.2 in Calm     96 % 0.0 in
06:52 12.1 °F 11.5 °F 1020.2 in Calm     96 % 0.0 in
07:02 12.1 °F 11.5 °F 1020.5 in Calm   1.6 mph 96 % 0.0 in
07:12 12.3 °F 11.7 °F 1020.5 in Calm   1.6 mph 96 % 0.0 in
07:17 12.3 °F 11.7 °F 1020.5 in Calm   1.6 mph 96 % 0.0 in
07:22 12.5 °F 11.9 °F 1020.9 in Calm   1.6 mph 96 % 0.0 in
07:32 12.9 °F 12.3 °F 1020.9 in South 1.6 mph 1.6 mph 96 % 0.0 in
07:42 13.6 °F 13.0 °F 1020.9 in SSW 4.8 mph 4.8 mph 96 % 0.0 in
07:47 13.8 °F 13.2 °F 1021.2 in SSW 4.8 mph 8.0 mph 96 % 0.0 in
07:52 14.1 °F 13.5 °F 1021.2 in SW 3.2 mph 8.0 mph 96 % 0.0 in
07:57 14.3 °F 13.7 °F 1021.2 in SW 3.2 mph 8.0 mph 96 % 0.0 in
08:02 14.7 °F 13.9 °F 1021.2 in WSW 3.2 mph 8.0 mph 95 % 0.0 in
08:12 15.3 °F 14.3 °F 1021.2 in SW 4.8 mph 8.0 mph 94 % 0.0 in
08:17 15.5 °F 14.4 °F 1021.6 in South 3.2 mph 4.8 mph 93 % 0.0 in
08:22 15.7 °F 14.4 °F 1021.6 in SW 4.8 mph 4.8 mph 92 % 0.0 in
08:32 16.1 °F 14.6 °F 1021.6 in Calm   6.4 mph 91 % 0.0 in
08:42 16.4 °F 14.6 °F 1021.6 in SE 3.2 mph 8.0 mph 89 % 0.0 in
08:47 16.7 °F 14.9 °F 1021.6 in South 1.6 mph 8.0 mph 89 % 0.0 in
08:52 16.9 °F 15.1 °F 1021.6 in South 1.6 mph 8.0 mph 89 % 0.0 in
08:57 17.3 °F 15.1 °F 1021.6 in Calm   6.4 mph 87 % 0.0 in
09:02 17.4 °F 15.0 °F 1021.9 in SSE 3.2 mph 6.4 mph 86 % 0.0 in
09:12 17.4 °F 15.2 °F 1021.9 in SSW 3.2 mph 6.4 mph 87 % 0.0 in
09:22 17.5 °F 15.3 °F 1021.9 in West 3.2 mph 8.0 mph 87 % 0.0 in
09:32 17.6 °F 15.2 °F 1022.2 in SW 6.4 mph 11.3 mph 86 % 0.0 in
09:42 17.8 °F 15.4 °F 1022.2 in SSW 6.4 mph 9.7 mph 86 % 0.0 in
09:47 17.7 °F 15.1 °F 1022.2 in SW 6.4 mph 12.9 mph 85 % 0.0 in
09:52 17.7 °F 15.3 °F 1022.2 in SSW 6.4 mph 12.9 mph 86 % 0.0 in
09:57 17.9 °F 15.3 °F 1022.2 in SSW 8.0 mph 14.5 mph 85 % 0.0 in
10:02 17.9 °F 15.5 °F 1022.2 in South 8.0 mph 14.5 mph 86 % 0.0 in
10:12 17.9 °F 15.3 °F 1022.2 in SW 14.5 mph 14.5 mph 85 % 0.0 in
10:17 17.9 °F 15.5 °F 1022.2 in SSW 12.9 mph 16.1 mph 86 % 0.0 in
10:22 17.8 °F 15.2 °F 1022.2 in SSW 11.3 mph 16.1 mph 85 % 0.0 in
10:32 18.1 °F 15.5 °F 1022.6 in SSW 12.9 mph 17.7 mph 85 % 0.0 in
10:42 18.3 °F 15.7 °F 1022.6 in SW 9.7 mph 19.3 mph 85 % 0.0 in
10:52 18.2 °F 15.5 °F 1022.6 in SSW 9.7 mph 19.3 mph 84 % 0.0 in
11:02 18.3 °F 15.4 °F 1022.6 in SW 9.7 mph 20.9 mph 83 % 0.0 in
11:07 18.4 °F 15.6 °F 1022.6 in SSW 8.0 mph 19.3 mph 84 % 0.0 in
11:12 18.6 °F 15.7 °F 1022.6 in SSW 8.0 mph 19.3 mph 83 % 0.0 in
11:17 18.8 °F 15.9 °F 1022.9 in SW 9.7 mph 19.3 mph 83 % 0.0 in
11:22 19.1 °F 16.1 °F 1022.9 in West 4.8 mph 19.3 mph 83 % 0.0 in
11:32 19.3 °F 16.1 °F 1022.9 in West 8.0 mph 16.1 mph 82 % 0.0 in
11:42 19.3 °F 16.0 °F 1022.9 in South 9.7 mph 17.7 mph 81 % 0.0 in
11:52 19.8 °F 16.2 °F 1023.2 in West 4.8 mph 17.7 mph 80 % 0.0 in
12:02 20.2 °F 16.4 °F 1023.2 in West 6.4 mph 16.1 mph 79 % 0.0 in
12:12 20.7 °F 16.3 °F 1022.9 in WSW 8.0 mph 17.7 mph 76 % 0.0 in
12:17 20.8 °F 16.4 °F 1022.9 in West 3.2 mph 17.7 mph 76 % 0.0 in
12:22 20.8 °F 16.4 °F 1023.2 in SSW 6.4 mph 17.7 mph 76 % 0.0 in
12:32 21.0 °F 16.6 °F 1022.9 in West 4.8 mph 16.1 mph 76 % 0.0 in
12:42 21.2 °F 16.6 °F 1022.9 in WNW 1.6 mph 16.1 mph 75 % 0.0 in
12:47 21.3 °F 16.3 °F 1022.9 in NW 4.8 mph 16.1 mph 73 % 0.0 in
12:52 21.1 °F 16.1 °F 1022.9 in WNW 3.2 mph 16.1 mph 73 % 0.0 in
13:02 21.6 °F 15.7 °F 1022.9 in West 6.4 mph 12.9 mph 69 % 0.0 in
13:07 21.6 °F 15.9 °F 1023.2 in WNW 8.0 mph 19.3 mph 70 % 0.0 in
13:17 22.1 °F 15.9 °F 1023.2 in WSW 6.4 mph 19.3 mph 68 % 0.0 in
13:22 22.4 °F 16.2 °F 1023.2 in West 4.8 mph 19.3 mph 68 % 0.0 in
13:27 22.6 °F 16.2 °F 1023.2 in NW 1.6 mph 14.5 mph 67 % 0.0 in
13:32 22.5 °F 15.8 °F 1023.2 in WNW 3.2 mph 14.5 mph 66 % 0.0 in
13:37 22.1 °F 15.2 °F 1023.2 in Calm   14.5 mph 65 % 0.0 in
13:42 22.3 °F 16.1 °F 1023.2 in WNW 4.8 mph 14.5 mph 68 % 0.0 in
13:47 22.6 °F 15.9 °F 1023.2 in WSW 8.0 mph 12.9 mph 66 % 0.0 in
13:52 22.6 °F 15.7 °F 1023.2 in WSW 11.3 mph 12.9 mph 65 % 0.0 in
13:57 22.4 °F 15.5 °F 1022.9 in WSW 3.2 mph 14.5 mph 65 % 0.0 in
14:02 22.4 °F 16.0 °F 1023.2 in West 3.2 mph 14.5 mph 67 % 0.0 in
14:12 22.6 °F 16.2 °F 1023.2 in WSW 1.6 mph 14.5 mph 67 % 0.0 in
14:17 22.4 °F 15.7 °F 1023.2 in NNE 3.2 mph 11.3 mph 66 % 0.0 in
14:22 22.6 °F 16.2 °F 1023.2 in NNW 4.8 mph 11.3 mph 67 % 0.0 in
14:27 22.4 °F 16.0 °F 1022.9 in WNW 1.6 mph 11.3 mph 67 % 0.0 in
14:32 22.6 °F 15.9 °F 1022.9 in West 4.8 mph 11.3 mph 66 % 0.0 in
14:37 22.4 °F 15.7 °F 1022.9 in WNW 6.4 mph 12.9 mph 66 % 0.0 in
14:42 22.4 °F 15.7 °F 1022.9 in West 1.6 mph 12.9 mph 66 % 0.0 in
14:52 23.0 °F 15.1 °F 1022.9 in SW 4.8 mph 11.3 mph 61 % 0.0 in
14:57 23.2 °F 15.0 °F 1022.9 in SW 6.4 mph 16.1 mph 60 % 0.0 in
15:02 23.4 °F 16.2 °F 1022.9 in WNW 4.8 mph 16.1 mph 64 % 0.0 in
15:12 23.4 °F 15.4 °F 1023.2 in West 8.0 mph 12.9 mph 61 % 0.0 in
15:17 23.4 °F 15.4 °F 1023.2 in SW 1.6 mph 17.7 mph 61 % 0.0 in
15:22 23.9 °F 15.9 °F 1023.2 in WSW 1.6 mph 17.7 mph 61 % 0.0 in
15:27 24.1 °F 15.6 °F 1023.2 in West 3.2 mph 14.5 mph 59 % 0.0 in
15:32 23.8 °F 15.8 °F 1023.2 in NNW 1.6 mph 14.5 mph 61 % 0.0 in
15:37 23.6 °F 15.9 °F 1023.2 in WNW 1.6 mph 9.7 mph 62 % 0.0 in
15:42 23.4 °F 15.7 °F 1023.2 in WNW 8.0 mph 9.7 mph 62 % 0.0 in
15:47 23.1 °F 15.7 °F 1023.2 in NW 4.8 mph 11.3 mph 63 % 0.0 in
15:52 22.9 °F 15.2 °F 1023.2 in NW 6.4 mph 11.3 mph 62 % 0.0 in
15:57 22.8 °F 15.1 °F 1023.2 in WNW 4.8 mph 14.5 mph 62 % 0.0 in
16:02 22.9 °F 15.5 °F 1023.2 in NNE 4.8 mph 14.5 mph 63 % 0.0 in
16:07 22.8 °F 15.1 °F 1023.2 in NNE 3.2 mph 9.7 mph 62 % 0.0 in
16:12 22.7 °F 15.5 °F 1023.2 in West 1.6 mph 9.7 mph 64 % 0.0 in
16:17 22.5 °F 15.6 °F 1023.2 in NW 3.2 mph 11.3 mph 65 % 0.0 in
16:22 22.7 °F 15.5 °F 1023.2 in NNW 4.8 mph 11.3 mph 64 % 0.0 in
16:32 23.3 °F 16.1 °F 1023.2 in NW 9.7 mph 12.9 mph 64 % 0.0 in
16:37 23.3 °F 15.1 °F 1023.2 in WNW 3.2 mph 16.1 mph 60 % 0.0 in
16:42 23.7 °F 15.7 °F 1023.2 in WSW 3.2 mph 16.1 mph 61 % 0.0 in
16:47 23.5 °F 15.8 °F 1023.2 in WNW 1.6 mph 12.9 mph 62 % 0.0 in
16:52 23.6 °F 15.6 °F 1023.2 in North 1.6 mph 12.9 mph 61 % 0.0 in
16:57 23.4 °F 15.7 °F 1023.2 in NNW 3.2 mph 11.3 mph 62 % 0.0 in
17:02 23.6 °F 16.1 °F 1023.2 in North 4.8 mph 11.3 mph 63 % 0.0 in
17:12 23.7 °F 16.2 °F 1023.2 in North 6.4 mph 12.9 mph 63 % 0.0 in
17:17 23.6 °F 15.6 °F 1023.2 in North 4.8 mph 14.5 mph 61 % 0.0 in
17:22 23.4 °F 15.4 °F 1023.2 in North 9.7 mph 14.5 mph 61 % 0.0 in
17:27 23.6 °F 15.9 °F 1023.2 in NW 3.2 mph 19.3 mph 62 % 0.0 in
17:32 23.7 °F 15.7 °F 1023.2 in West 3.2 mph 19.3 mph 61 % 0.0 in
17:37 23.6 °F 15.4 °F 1023.2 in NNW 4.8 mph 19.3 mph 60 % 0.0 in
17:42 23.6 °F 15.4 °F 1023.2 in WNW 11.3 mph 19.3 mph 60 % 0.0 in
17:52 23.4 °F 14.7 °F 1023.2 in NNW 4.8 mph 14.5 mph 58 % 0.0 in
17:57 23.4 °F 14.7 °F 1023.2 in NW 1.6 mph 14.5 mph 58 % 0.0 in
18:02 23.6 °F 14.6 °F 1023.2 in NE 4.8 mph 14.5 mph 57 % 0.0 in
18:07 23.6 °F 14.9 °F 1023.2 in NW 3.2 mph 14.5 mph 58 % 0.0 in
18:12 23.6 °F 15.4 °F 1023.2 in WNW 1.6 mph 14.5 mph 60 % 0.0 in
18:17 23.4 °F 14.9 °F 1023.2 in NNW 6.4 mph 17.7 mph 59 % 0.0 in
18:22 23.3 °F 15.4 °F 1023.2 in NNW 4.8 mph 17.7 mph 61 % 0.0 in
18:32 23.2 °F 15.5 °F 1023.2 in WNW 1.6 mph 16.1 mph 62 % 0.0 in
18:37 23.2 °F 15.0 °F 1023.2 in NNW 8.0 mph 16.1 mph 60 % 0.0 in
18:42 23.2 °F 15.5 °F 1023.6 in NNW 8.0 mph 16.1 mph 62 % 0.0 in
18:47 23.3 °F 14.8 °F 1023.2 in NW 6.4 mph 14.5 mph 59 % 0.0 in
18:52 23.2 °F 14.7 °F 1023.2 in NNW 3.2 mph 14.5 mph 59 % 0.0 in
18:57 23.2 °F 14.5 °F 1023.2 in NNW 6.4 mph 19.3 mph 58 % 0.0 in
19:02 23.1 °F 13.6 °F 1023.2 in NW 4.8 mph 19.3 mph 55 % 0.0 in
19:07 22.9 °F 13.7 °F 1023.6 in NW 3.2 mph 14.5 mph 56 % 0.0 in
19:12 22.9 °F 13.4 °F 1023.6 in NW 4.8 mph 14.5 mph 55 % 0.0 in
19:17 22.9 °F 12.5 °F 1023.6 in WNW 8.0 mph 12.9 mph 52 % 0.0 in
19:22 23.1 °F 13.0 °F 1023.6 in NNW 4.8 mph 12.9 mph 53 % 0.0 in
19:32 22.7 °F 14.0 °F 1023.6 in North 4.8 mph 12.9 mph 58 % 0.0 in
19:37 22.6 °F 13.9 °F 1023.9 in NW 4.8 mph 11.3 mph 58 % 0.0 in
19:42 22.6 °F 13.9 °F 1023.9 in WNW 1.6 mph 11.3 mph 58 % 0.0 in
19:52 22.7 °F 13.7 °F 1023.6 in NNW 4.8 mph 8.0 mph 57 % 0.0 in
20:02 22.3 °F 14.2 °F 1023.9 in NW 4.8 mph 8.0 mph 60 % 0.0 in
20:12 22.2 °F 14.6 °F 1023.9 in NNW 3.2 mph 9.7 mph 62 % 0.0 in
20:17 22.2 °F 14.6 °F 1023.9 in NW 1.6 mph 9.7 mph 62 % 0.0 in
20:22 22.2 °F 14.6 °F 1023.9 in NNW 1.6 mph 9.7 mph 62 % 0.0 in
20:27 22.2 °F 14.6 °F 1023.9 in NNW 1.6 mph 6.4 mph 62 % 0.0 in
20:32 22.2 °F 14.3 °F 1023.9 in NW 4.8 mph 6.4 mph 61 % 0.0 in
20:37 22.2 °F 14.6 °F 1023.9 in NNW 3.2 mph 8.0 mph 62 % 0.0 in
20:42 21.8 °F 14.4 °F 1024.3 in NW 1.6 mph 8.0 mph 63 % 0.0 in
20:47 21.4 °F 14.5 °F 1024.3 in WNW 1.6 mph 8.0 mph 65 % 0.0 in
20:57 20.9 °F 14.5 °F 1024.3 in NNW 4.8 mph 4.8 mph 67 % 0.0 in
21:02 20.6 °F 14.5 °F 1024.3 in NNW 3.2 mph 4.8 mph 68 % 0.0 in
21:07 20.3 °F 14.4 °F 1024.3 in NNW 1.6 mph 6.4 mph 69 % 0.0 in
21:12 20.1 °F 14.5 °F 1024.3 in NNW 1.6 mph 6.4 mph 70 % 0.0 in
21:17 19.9 °F 14.5 °F 1024.3 in Calm   4.8 mph 71 % 0.0 in
21:22 19.7 °F 14.5 °F 1024.3 in WNW 1.6 mph 4.8 mph 72 % 0.0 in
21:32 19.4 °F 14.2 °F 1024.3 in Calm   3.2 mph 72 % 0.0 in
21:37 19.3 °F 14.3 °F 1024.3 in Calm   3.2 mph 73 % 0.0 in
21:42 19.2 °F 14.5 °F 1024.3 in NW 1.6 mph 3.2 mph 74 % 0.0 in
21:52 18.9 °F 14.4 °F 1024.6 in Calm   3.2 mph 75 % 0.0 in
21:57 18.7 °F 14.2 °F 1024.6 in NW 1.6 mph 3.2 mph 75 % 0.0 in
22:02 18.6 °F 14.3 °F 1024.6 in NW 3.2 mph 3.2 mph 76 % 0.0 in
22:07 18.4 °F 14.1 °F 1024.6 in NW 1.6 mph 4.8 mph 76 % 0.0 in
22:12 18.3 °F 14.0 °F 1024.6 in NW 1.6 mph 4.8 mph 76 % 0.0 in
22:17 18.2 °F 14.1 °F 1024.9 in West 3.2 mph 4.8 mph 77 % 0.0 in
22:22 18.1 °F 14.0 °F 1024.9 in WNW 1.6 mph 4.8 mph 77 % 0.0 in
22:32 17.8 °F 13.9 °F 1024.9 in Calm   4.8 mph 78 % 0.0 in
22:37 17.6 °F 13.7 °F 1024.9 in Calm   4.8 mph 78 % 0.0 in
22:42 17.4 °F 13.5 °F 1024.9 in Calm   4.8 mph 78 % 0.0 in
22:52 17.3 °F 13.6 °F 1024.9 in Calm   3.2 mph 79 % 0.0 in
22:57 17.2 °F 13.5 °F 1024.9 in Calm   1.6 mph 79 % 0.0 in
23:02 17.0 °F 13.3 °F 1024.9 in Calm   1.6 mph 79 % 0.0 in
23:12 16.8 °F 13.3 °F 1024.9 in Calm     80 % 0.0 in
23:17 16.8 °F 13.3 °F 1024.9 in Calm     80 % 0.0 in
23:22 16.7 °F 13.2 °F 1024.9 in NW 3.2 mph   80 % 0.0 in
23:32 16.7 °F 13.2 °F 1024.9 in North 1.6 mph 3.2 mph 80 % 0.0 in
23:42 16.6 °F 13.1 °F 1024.9 in NW 3.2 mph 3.2 mph 80 % 0.0 in
23:52 16.5 °F 13.0 °F 1024.9 in WNW 1.6 mph 3.2 mph 80 % 0.0 in
23:57 16.4 °F 12.9 °F 1024.9 in WNW 4.8 mph 6.4 mph 80 % 0.0 in
Meteo18
Compliments of Weather Underground - 4 mb

Script developed by  Jim McMurry - jmcmurry@mwt.net Adapted for the template by  Wim van der Kuil - Leuven-Template.eu

You find our weather info also at:

European Weather Network

Weather Underground

Equipment we use:

Weather-station
Davis Vue

Weather-program
Meteobridge

Weather-server
Raspberry PI 2 B+

Provider
1 and 1

Davis Vue

Meteobridge

Raspberry PI 2 B+

1 and 1